sensor_id;sensor_type;location;lat;lon;timestamp;pressure;altitude;pressure_sealevel;temperature;humidity
7182;BME280;3632;42.724;23.298;2023-03-14T00:00:34;95282.19;;;3.61;55.10
7182;BME280;3632;42.724;23.298;2023-03-14T00:03:02;95624.78;;;5.66;55.89
7182;BME280;3632;42.724;23.298;2023-03-14T00:05:29;95572.09;;;5.27;56.75
7182;BME280;3632;42.724;23.298;2023-03-14T00:07:56;95621.22;;;5.55;56.62
7182;BME280;3632;42.724;23.298;2023-03-14T00:10:22;95613.97;;;5.64;56.10
7182;BME280;3632;42.724;23.298;2023-03-14T00:12:49;95637.09;;;5.57;55.04
7182;BME280;3632;42.724;23.298;2023-03-14T00:15:16;95607.16;;;5.65;55.39
7182;BME280;3632;42.724;23.298;2023-03-14T00:17:43;95609.44;;;5.69;54.41
7182;BME280;3632;42.724;23.298;2023-03-14T00:20:12;95611.69;;;5.60;53.56
7182;BME280;3632;42.724;23.298;2023-03-14T00:22:40;95593.97;;;5.75;53.13
7182;BME280;3632;42.724;23.298;2023-03-14T00:25:08;95066.63;;;2.10;52.22
7182;BME280;3632;42.724;23.298;2023-03-14T00:27:35;95572.72;;;5.78;52.57
7182;BME280;3632;42.724;23.298;2023-03-14T00:30:03;95578.34;;;5.98;51.84
7182;BME280;3632;42.724;23.298;2023-03-14T00:32:30;95578.03;;;6.05;51.58
7182;BME280;3632;42.724;23.298;2023-03-14T00:34:57;95578.47;;;5.97;51.03
7182;BME280;3632;42.724;23.298;2023-03-14T00:37:25;94955.63;;;2.02;51.03
7182;BME280;3632;42.724;23.298;2023-03-14T00:39:52;95398.66;;;4.96;51.99
7182;BME280;3632;42.724;23.298;2023-03-14T00:42:18;95573.16;;;6.16;51.44
7182;BME280;3632;42.724;23.298;2023-03-14T00:44:45;95572.84;;;6.22;51.34
7182;BME280;3632;42.724;23.298;2023-03-14T00:47:12;95571.69;;;6.27;50.71
7182;BME280;3632;42.724;23.298;2023-03-14T00:49:39;95562.34;;;6.14;51.03
7182;BME280;3632;42.724;23.298;2023-03-14T00:52:08;95564.50;;;6.06;51.80
7182;BME280;3632;42.724;23.298;2023-03-14T00:54:36;95567.91;;;6.05;51.10
7182;BME280;3632;42.724;23.298;2023-03-14T00:57:03;95208.28;;;3.45;52.37
7182;BME280;3632;42.724;23.298;2023-03-14T00:59:30;95438.03;;;5.30;51.69
7182;BME280;3632;42.724;23.298;2023-03-14T01:01:57;95564.88;;;6.14;51.65
7182;BME280;3632;42.724;23.298;2023-03-14T01:04:24;95559.81;;;6.14;51.48
7182;BME280;3632;42.724;23.298;2023-03-14T01:06:51;95559.63;;;6.17;51.87
7182;BME280;3632;42.724;23.298;2023-03-14T01:09:17;95423.28;;;5.23;51.64
7182;BME280;3632;42.724;23.298;2023-03-14T01:11:46;95462.94;;;5.36;51.90
7182;BME280;3632;42.724;23.298;2023-03-14T01:14:14;95556.97;;;6.04;51.60
7182;BME280;3632;42.724;23.298;2023-03-14T01:16:41;95437.50;;;5.39;50.97
7182;BME280;3632;42.724;23.298;2023-03-14T01:19:08;95537.69;;;5.87;52.43
7182;BME280;3632;42.724;23.298;2023-03-14T01:21:35;95533.66;;;5.83;53.13
7182;BME280;3632;42.724;23.298;2023-03-14T01:24:05;95532.91;;;5.81;53.06
7182;BME280;3632;42.724;23.298;2023-03-14T01:26:34;95534.34;;;5.71;53.52
7182;BME280;3632;42.724;23.298;2023-03-14T01:29:02;95525.94;;;5.71;54.06
7182;BME280;3632;42.724;23.298;2023-03-14T01:31:29;95534.66;;;5.65;55.15
7182;BME280;3632;42.724;23.298;2023-03-14T01:33:56;95530.03;;;5.58;55.03
7182;BME280;3632;42.724;23.298;2023-03-14T01:36:23;95551.63;;;5.47;55.42
7182;BME280;3632;42.724;23.298;2023-03-14T01:38:50;95529.16;;;5.43;55.65
7182;BME280;3632;42.724;23.298;2023-03-14T01:41:19;95527.94;;;5.34;56.03
7182;BME280;3632;42.724;23.298;2023-03-14T01:43:46;95444.19;;;4.79;56.31
7182;BME280;3632;42.724;23.298;2023-03-14T01:46:23;95491.50;;;4.91;57.07
7182;BME280;3632;42.724;23.298;2023-03-14T01:49:07;95520.75;;;5.11;57.01
7182;BME280;3632;42.724;23.298;2023-03-14T01:51:40;95516.19;;;5.02;57.36
7182;BME280;3632;42.724;23.298;2023-03-14T01:54:12;95515.38;;;5.01;57.61
7182;BME280;3632;42.724;23.298;2023-03-14T01:56:43;95394.97;;;4.24;57.58
7182;BME280;3632;42.724;23.298;2023-03-14T01:59:12;95434.09;;;4.31;57.89
7182;BME280;3632;42.724;23.298;2023-03-14T02:01:43;95391.34;;;4.12;58.10
7182;BME280;3632;42.724;23.298;2023-03-14T02:04:11;95540.56;;;4.87;57.98
7182;BME280;3632;42.724;23.298;2023-03-14T02:06:46;95453.44;;;4.47;58.28
7182;BME280;3632;42.724;23.298;2023-03-14T02:09:14;95518.13;;;4.81;58.35
7182;BME280;3632;42.724;23.298;2023-03-14T02:11:41;95060.72;;;1.77;58.14
7182;BME280;3632;42.724;23.298;2023-03-14T02:14:14;95507.88;;;4.84;58.14
7182;BME280;3632;42.724;23.298;2023-03-14T02:16:44;95547.66;;;4.64;58.50
7182;BME280;3632;42.724;23.298;2023-03-14T02:19:12;95431.75;;;4.28;58.59
7182;BME280;3632;42.724;23.298;2023-03-14T02:21:47;95498.56;;;4.69;58.71
7182;BME280;3632;42.724;23.298;2023-03-14T02:24:26;95502.63;;;4.72;58.90
7182;BME280;3632;42.724;23.298;2023-03-14T02:27:07;95495.16;;;4.70;59.36
7182;BME280;3632;42.724;23.298;2023-03-14T02:29:36;94764.50;;;-0.53;59.13
7182;BME280;3632;42.724;23.298;2023-03-14T02:32:05;95511.03;;;4.72;59.27
7182;BME280;3632;42.724;23.298;2023-03-14T02:34:33;95512.59;;;4.75;59.11
7182;BME280;3632;42.724;23.298;2023-03-14T02:37:01;95513.72;;;4.69;59.44
7182;BME280;3632;42.724;23.298;2023-03-14T02:39:32;95507.13;;;4.67;59.08
7182;BME280;3632;42.724;23.298;2023-03-14T02:42:01;95517.88;;;4.70;59.58
7182;BME280;3632;42.724;23.298;2023-03-14T02:44:29;95453.81;;;4.24;59.33
7182;BME280;3632;42.724;23.298;2023-03-14T02:46:56;95532.44;;;4.65;59.29
7182;BME280;3632;42.724;23.298;2023-03-14T02:49:25;95526.00;;;4.42;59.31
7182;BME280;3632;42.724;23.298;2023-03-14T02:51:53;95517.38;;;4.64;60.08
7182;BME280;3632;42.724;23.298;2023-03-14T02:54:20;95301.75;;;2.36;59.61
7182;BME280;3632;42.724;23.298;2023-03-14T02:56:47;95520.50;;;4.51;60.23
7182;BME280;3632;42.724;23.298;2023-03-14T02:59:14;95437.16;;;3.53;61.32
7182;BME280;3632;42.724;23.298;2023-03-14T03:01:42;95522.84;;;4.22;61.62
7182;BME280;3632;42.724;23.298;2023-03-14T03:04:08;95537.84;;;4.25;60.09
7182;BME280;3632;42.724;23.298;2023-03-14T03:06:35;95530.25;;;4.25;60.14
7182;BME280;3632;42.724;23.298;2023-03-14T03:09:02;95447.69;;;3.78;60.20
7182;BME280;3632;42.724;23.298;2023-03-14T03:11:29;95525.75;;;4.31;60.25
7182;BME280;3632;42.724;23.298;2023-03-14T03:13:57;95284.28;;;2.86;59.87
7182;BME280;3632;42.724;23.298;2023-03-14T03:16:23;95319.75;;;3.16;60.04
7182;BME280;3632;42.724;23.298;2023-03-14T03:18:51;95525.34;;;4.39;59.65
7182;BME280;3632;42.724;23.298;2023-03-14T03:21:18;95523.81;;;4.36;59.65
7182;BME280;3632;42.724;23.298;2023-03-14T03:23:48;95378.31;;;3.54;60.21
7182;BME280;3632;42.724;23.298;2023-03-14T03:26:15;95510.63;;;4.31;60.12
7182;BME280;3632;42.724;23.298;2023-03-14T03:28:42;95515.72;;;4.30;59.66
7182;BME280;3632;42.724;23.298;2023-03-14T03:31:10;95521.22;;;4.21;60.50
7182;BME280;3632;42.724;23.298;2023-03-14T03:33:37;95515.28;;;4.22;60.71
7182;BME280;3632;42.724;23.298;2023-03-14T03:36:07;95492.94;;;3.98;60.39
7182;BME280;3632;42.724;23.298;2023-03-14T03:38:34;95509.53;;;4.20;60.74
7182;BME280;3632;42.724;23.298;2023-03-14T03:41:02;95518.63;;;4.22;60.50
7182;BME280;3632;42.724;23.298;2023-03-14T03:43:29;95523.44;;;4.27;60.86
7182;BME280;3632;42.724;23.298;2023-03-14T03:45:56;95521.91;;;4.24;60.48
7182;BME280;3632;42.724;23.298;2023-03-14T03:48:23;95521.09;;;4.06;61.05
7182;BME280;3632;42.724;23.298;2023-03-14T03:50:50;95525.44;;;4.20;61.10
7182;BME280;3632;42.724;23.298;2023-03-14T03:53:18;95525.75;;;4.14;61.79
7182;BME280;3632;42.724;23.298;2023-03-14T03:55:45;95521.59;;;4.13;61.08
7182;BME280;3632;42.724;23.298;2023-03-14T03:58:11;95530.53;;;4.03;62.25
7182;BME280;3632;42.724;23.298;2023-03-14T04:00:38;95416.28;;;3.34;61.53
7182;BME280;3632;42.724;23.298;2023-03-14T04:03:05;95382.44;;;2.86;61.12
7182;BME280;3632;42.724;23.298;2023-03-14T04:05:32;95526.75;;;4.11;61.51
7182;BME280;3632;42.724;23.298;2023-03-14T04:07:59;95535.19;;;4.10;60.28
7182;BME280;3632;42.724;23.298;2023-03-14T04:10:28;95525.22;;;4.07;60.59
7182;BME280;3632;42.724;23.298;2023-03-14T04:12:54;94941.75;;;0.36;60.46
7182;BME280;3632;42.724;23.298;2023-03-14T04:15:21;95527.91;;;4.04;61.49
7182;BME280;3632;42.724;23.298;2023-03-14T04:17:48;95509.44;;;4.04;61.69
7182;BME280;3632;42.724;23.298;2023-03-14T04:20:15;95502.34;;;3.78;63.33
7182;BME280;3632;42.724;23.298;2023-03-14T04:22:41;95440.41;;;3.20;63.39
7182;BME280;3632;42.724;23.298;2023-03-14T04:25:08;95515.16;;;3.73;63.94
7182;BME280;3632;42.724;23.298;2023-03-14T04:27:37;95505.75;;;3.77;64.24
7182;BME280;3632;42.724;23.298;2023-03-14T04:30:04;95511.06;;;3.71;64.61
7182;BME280;3632;42.724;23.298;2023-03-14T04:32:31;95502.97;;;3.47;64.91
7182;BME280;3632;42.724;23.298;2023-03-14T04:34:58;95496.03;;;3.52;65.38
7182;BME280;3632;42.724;23.298;2023-03-14T04:37:24;95491.03;;;3.33;65.46
7182;BME280;3632;42.724;23.298;2023-03-14T04:39:51;95484.94;;;3.01;66.65
7182;BME280;3632;42.724;23.298;2023-03-14T04:42:18;95323.91;;;1.72;67.34
7182;BME280;3632;42.724;23.298;2023-03-14T04:44:46;95486.97;;;2.93;68.07
7182;BME280;3632;42.724;23.298;2023-03-14T04:47:14;95489.03;;;2.85;68.25
7182;BME280;3632;42.724;23.298;2023-03-14T04:49:41;95490.44;;;2.72;69.63
7182;BME280;3632;42.724;23.298;2023-03-14T04:52:08;95430.84;;;2.37;69.79
7182;BME280;3632;42.724;23.298;2023-03-14T04:54:35;95404.25;;;2.31;68.63
7182;BME280;3632;42.724;23.298;2023-03-14T04:57:02;95480.25;;;2.94;68.57
7182;BME280;3632;42.724;23.298;2023-03-14T04:59:28;95491.53;;;2.85;68.40
7182;BME280;3632;42.724;23.298;2023-03-14T05:01:56;95268.13;;;1.45;68.68
7182;BME280;3632;42.724;23.298;2023-03-14T05:04:23;95477.78;;;3.11;69.02
7182;BME280;3632;42.724;23.298;2023-03-14T05:06:50;95350.63;;;2.30;67.36
7182;BME280;3632;42.724;23.298;2023-03-14T05:09:17;95069.31;;;0.62;68.03
7182;BME280;3632;42.724;23.298;2023-03-14T05:11:43;95481.53;;;3.21;68.09
7182;BME280;3632;42.724;23.298;2023-03-14T05:14:10;95473.88;;;3.22;68.18
7182;BME280;3632;42.724;23.298;2023-03-14T05:16:37;95478.78;;;3.26;67.09
7182;BME280;3632;42.724;23.298;2023-03-14T05:19:05;95337.09;;;2.14;67.11
7182;BME280;3632;42.724;23.298;2023-03-14T05:21:32;95469.13;;;3.16;67.56
7182;BME280;3632;42.724;23.298;2023-03-14T05:23:59;95428.75;;;2.82;68.63
7182;BME280;3632;42.724;23.298;2023-03-14T05:26:25;95480.81;;;3.00;68.98
7182;BME280;3632;42.724;23.298;2023-03-14T05:28:52;95345.59;;;2.30;67.51
7182;BME280;3632;42.724;23.298;2023-03-14T05:31:19;95391.06;;;2.81;66.83
7182;BME280;3632;42.724;23.298;2023-03-14T05:33:45;95479.78;;;3.57;65.45
7182;BME280;3632;42.724;23.298;2023-03-14T05:36:13;95470.53;;;3.75;64.54
7182;BME280;3632;42.724;23.298;2023-03-14T05:38:40;95473.09;;;3.91;63.83
7182;BME280;3632;42.724;23.298;2023-03-14T05:41:07;95116.88;;;1.57;63.40
7182;BME280;3632;42.724;23.298;2023-03-14T05:43:34;95333.88;;;3.36;62.41
7182;BME280;3632;42.724;23.298;2023-03-14T05:46:01;95477.88;;;4.30;61.83
7182;BME280;3632;42.724;23.298;2023-03-14T05:48:27;95468.97;;;4.40;61.57
7182;BME280;3632;42.724;23.298;2023-03-14T05:50:55;95465.38;;;4.44;60.75
7182;BME280;3632;42.724;23.298;2023-03-14T05:53:23;95471.84;;;4.49;61.20
7182;BME280;3632;42.724;23.298;2023-03-14T05:55:51;95051.84;;;0.79;60.10
7182;BME280;3632;42.724;23.298;2023-03-14T05:58:18;95469.41;;;4.64;60.94
7182;BME280;3632;42.724;23.298;2023-03-14T06:00:45;95462.47;;;4.67;60.65
7182;BME280;3632;42.724;23.298;2023-03-14T06:03:11;95463.41;;;4.66;60.42
7182;BME280;3632;42.724;23.298;2023-03-14T06:05:38;95464.22;;;4.67;60.61
7182;BME280;3632;42.724;23.298;2023-03-14T06:08:05;95332.53;;;3.79;60.97
7182;BME280;3632;42.724;23.298;2023-03-14T06:10:34;95467.75;;;4.63;61.56
7182;BME280;3632;42.724;23.298;2023-03-14T06:13:01;95462.22;;;4.56;61.44
7182;BME280;3632;42.724;23.298;2023-03-14T06:15:28;95501.22;;;4.50;62.96
7182;BME280;3632;42.724;23.298;2023-03-14T06:17:54;95455.06;;;4.64;61.70
7182;BME280;3632;42.724;23.298;2023-03-14T06:20:21;95486.38;;;4.77;60.78
7182;BME280;3632;42.724;23.298;2023-03-14T06:22:48;95481.72;;;4.85;60.67
7182;BME280;3632;42.724;23.298;2023-03-14T06:25:15;95477.97;;;4.92;60.38
7182;BME280;3632;42.724;23.298;2023-03-14T06:27:44;95471.38;;;5.05;60.01
7182;BME280;3632;42.724;23.298;2023-03-14T06:30:11;95276.22;;;3.95;59.44
7182;BME280;3632;42.724;23.298;2023-03-14T06:32:38;95463.44;;;5.27;59.47
7182;BME280;3632;42.724;23.298;2023-03-14T06:35:05;95388.69;;;4.93;58.07
7182;BME280;3632;42.724;23.298;2023-03-14T06:37:32;95462.38;;;5.47;57.90
7182;BME280;3632;42.724;23.298;2023-03-14T06:39:59;95456.63;;;5.59;57.69
7182;BME280;3632;42.724;23.298;2023-03-14T06:42:25;95473.41;;;5.60;56.96
7182;BME280;3632;42.724;23.298;2023-03-14T06:44:54;95457.63;;;5.86;56.24
7182;BME280;3632;42.724;23.298;2023-03-14T06:47:20;95455.47;;;5.94;56.56
7182;BME280;3632;42.724;23.298;2023-03-14T06:49:47;95445.88;;;5.85;56.24
7182;BME280;3632;42.724;23.298;2023-03-14T06:52:14;95438.16;;;6.17;55.90
7182;BME280;3632;42.724;23.298;2023-03-14T06:54:40;95440.25;;;6.24;56.49
7182;BME280;3632;42.724;23.298;2023-03-14T06:57:07;95434.91;;;6.15;56.66
7182;BME280;3632;42.724;23.298;2023-03-14T06:59:34;95430.84;;;5.82;56.91
7182;BME280;3632;42.724;23.298;2023-03-14T07:02:02;95430.59;;;5.73;57.08
7182;BME280;3632;42.724;23.298;2023-03-14T07:04:29;95389.84;;;5.77;55.79
7182;BME280;3632;42.724;23.298;2023-03-14T07:06:55;95429.88;;;6.15;55.82
7182;BME280;3632;42.724;23.298;2023-03-14T07:09:22;95425.63;;;6.15;55.81
7182;BME280;3632;42.724;23.298;2023-03-14T07:11:49;94733.19;;;1.95;54.79
7182;BME280;3632;42.724;23.298;2023-03-14T07:14:16;95424.72;;;6.45;55.37
7182;BME280;3632;42.724;23.298;2023-03-14T07:16:42;95433.16;;;6.58;54.29
7182;BME280;3632;42.724;23.298;2023-03-14T07:19:11;95392.84;;;5.40;53.39
7182;BME280;3632;42.724;23.298;2023-03-14T07:21:38;95365.56;;;6.46;52.95
7182;BME280;3632;42.724;23.298;2023-03-14T07:24:05;95460.34;;;6.97;52.75
7182;BME280;3632;42.724;23.298;2023-03-14T07:26:32;94718.00;;;2.42;53.54
7182;BME280;3632;42.724;23.298;2023-03-14T07:28:59;95404.75;;;6.81;53.02
7182;BME280;3632;42.724;23.298;2023-03-14T07:31:28;95259.06;;;6.08;53.79
7182;BME280;3632;42.724;23.298;2023-03-14T07:33:55;95404.00;;;7.20;51.97
7182;BME280;3632;42.724;23.298;2023-03-14T07:36:23;95222.59;;;6.24;51.18
7182;BME280;3632;42.724;23.298;2023-03-14T07:38:50;95227.13;;;6.46;50.46
7182;BME280;3632;42.724;23.298;2023-03-14T07:41:17;95207.41;;;6.24;51.50
7182;BME280;3632;42.724;23.298;2023-03-14T07:43:46;95399.31;;;7.53;53.08
7182;BME280;3632;42.724;23.298;2023-03-14T07:46:13;94865.19;;;4.52;51.59
7182;BME280;3632;42.724;23.298;2023-03-14T07:48:39;95391.81;;;7.64;51.21
7182;BME280;3632;42.724;23.298;2023-03-14T07:51:06;95328.53;;;7.11;51.20
7182;BME280;3632;42.724;23.298;2023-03-14T07:53:34;95387.81;;;7.35;50.63
7182;BME280;3632;42.724;23.298;2023-03-14T07:56:01;95390.34;;;7.35;51.07
7182;BME280;3632;42.724;23.298;2023-03-14T07:58:28;95398.09;;;7.46;51.06
7182;BME280;3632;42.724;23.298;2023-03-14T08:00:54;95384.03;;;7.67;51.40
7182;BME280;3632;42.724;23.298;2023-03-14T08:03:21;95382.41;;;7.79;51.13
7182;BME280;3632;42.724;23.298;2023-03-14T08:05:49;94939.66;;;5.00;51.64
7182;BME280;3632;42.724;23.298;2023-03-14T08:08:17;95376.13;;;8.22;51.52
7182;BME280;3632;42.724;23.298;2023-03-14T08:10:45;95280.88;;;6.91;50.68
7182;BME280;3632;42.724;23.298;2023-03-14T08:13:12;95289.09;;;8.08;48.55
7182;BME280;3632;42.724;23.298;2023-03-14T08:15:39;95370.03;;;8.74;48.85
7182;BME280;3632;42.724;23.298;2023-03-14T08:18:06;95372.81;;;8.58;48.11
7182;BME280;3632;42.724;23.298;2023-03-14T08:20:33;94961.25;;;6.22;49.56
7182;BME280;3632;42.724;23.298;2023-03-14T08:23:00;95365.69;;;8.87;48.55
7182;BME280;3632;42.724;23.298;2023-03-14T08:25:27;95370.69;;;9.12;47.31
7182;BME280;3632;42.724;23.298;2023-03-14T08:27:56;94930.44;;;6.54;45.82
7182;BME280;3632;42.724;23.298;2023-03-14T08:30:23;95357.72;;;9.39;45.02
7182;BME280;3632;42.724;23.298;2023-03-14T08:32:49;95366.34;;;9.60;44.63
7182;BME280;3632;42.724;23.298;2023-03-14T08:35:16;95216.22;;;8.57;45.84
7182;BME280;3632;42.724;23.298;2023-03-14T08:37:43;95044.59;;;7.25;45.00
7182;BME280;3632;42.724;23.298;2023-03-14T08:40:11;95242.94;;;8.87;45.79
7182;BME280;3632;42.724;23.298;2023-03-14T08:42:38;95242.50;;;9.04;47.28
7182;BME280;3632;42.724;23.298;2023-03-14T08:45:08;95347.88;;;9.70;47.44
7182;BME280;3632;42.724;23.298;2023-03-14T08:47:36;95313.38;;;9.54;44.92
7182;BME280;3632;42.724;23.298;2023-03-14T08:50:04;95329.38;;;9.79;45.16
7182;BME280;3632;42.724;23.298;2023-03-14T08:52:32;95320.13;;;9.89;45.42
7182;BME280;3632;42.724;23.298;2023-03-14T08:54:59;95350.00;;;9.98;45.28
7182;BME280;3632;42.724;23.298;2023-03-14T08:57:26;95309.38;;;10.19;44.82
7182;BME280;3632;42.724;23.298;2023-03-14T08:59:53;95297.44;;;10.41;44.24
7182;BME280;3632;42.724;23.298;2023-03-14T09:02:22;95300.50;;;10.78;43.96
7182;BME280;3632;42.724;23.298;2023-03-14T09:04:50;95304.66;;;10.79;44.57
7182;BME280;3632;42.724;23.298;2023-03-14T09:07:18;95271.47;;;10.59;43.52
7182;BME280;3632;42.724;23.298;2023-03-14T09:09:44;95176.72;;;10.65;44.25
7182;BME280;3632;42.724;23.298;2023-03-14T09:12:11;95104.38;;;10.45;43.00
7182;BME280;3632;42.724;23.298;2023-03-14T09:14:38;95272.19;;;11.34;40.16
7182;BME280;3632;42.724;23.298;2023-03-14T09:17:05;95271.53;;;11.53;40.65
7182;BME280;3632;42.724;23.298;2023-03-14T09:19:34;95019.81;;;9.78;40.00
7182;BME280;3632;42.724;23.298;2023-03-14T09:22:01;95280.16;;;12.12;40.03
7182;BME280;3632;42.724;23.298;2023-03-14T09:24:29;95251.44;;;12.29;41.57
7182;BME280;3632;42.724;23.298;2023-03-14T09:26:55;94842.47;;;9.57;39.13
7182;BME280;3632;42.724;23.298;2023-03-14T09:29:22;94837.91;;;8.88;38.65
7182;BME280;3632;42.724;23.298;2023-03-14T09:31:49;94843.22;;;9.48;39.77
7182;BME280;3632;42.724;23.298;2023-03-14T09:34:16;95236.69;;;12.62;39.89
7182;BME280;3632;42.724;23.298;2023-03-14T09:36:45;95137.66;;;12.64;38.63
7182;BME280;3632;42.724;23.298;2023-03-14T09:39:12;95220.53;;;13.28;38.39
7182;BME280;3632;42.724;23.298;2023-03-14T09:41:40;94817.78;;;11.08;38.21
7182;BME280;3632;42.724;23.298;2023-03-14T09:44:13;95138.81;;;13.54;38.96
7182;BME280;3632;42.724;23.298;2023-03-14T09:46:43;95244.19;;;14.24;36.71
7182;BME280;3632;42.724;23.298;2023-03-14T09:49:19;95227.69;;;13.15;35.36
7182;BME280;3632;42.724;23.298;2023-03-14T09:51:50;95174.81;;;13.80;39.40
7182;BME280;3632;42.724;23.298;2023-03-14T09:54:28;94811.56;;;11.87;38.67
7182;BME280;3632;42.724;23.298;2023-03-14T09:56:56;95057.81;;;13.98;36.09
7182;BME280;3632;42.724;23.298;2023-03-14T09:59:25;94776.72;;;12.23;36.09
7182;BME280;3632;42.724;23.298;2023-03-14T10:01:52;94876.47;;;13.13;36.57
7182;BME280;3632;42.724;23.298;2023-03-14T10:04:21;94510.06;;;10.99;35.81
7182;BME280;3632;42.724;23.298;2023-03-14T10:06:52;95162.97;;;15.13;35.03
7182;BME280;3632;42.724;23.298;2023-03-14T10:09:21;94804.34;;;12.82;33.93
7182;BME280;3632;42.724;23.298;2023-03-14T10:11:53;94880.84;;;13.74;34.30
7182;BME280;3632;42.724;23.298;2023-03-14T10:14:29;95094.25;;;15.40;35.21
7182;BME280;3632;42.724;23.298;2023-03-14T10:17:05;95132.16;;;16.14;34.61
7182;BME280;3632;42.724;23.298;2023-03-14T10:19:32;95112.75;;;16.44;34.15
7182;BME280;3632;42.724;23.298;2023-03-14T10:22:03;95126.97;;;16.88;33.68
7182;BME280;3632;42.724;23.298;2023-03-14T10:24:31;95038.47;;;16.49;32.81
7182;BME280;3632;42.724;23.298;2023-03-14T10:27:00;95163.31;;;17.18;31.27
7182;BME280;3632;42.724;23.298;2023-03-14T10:29:28;95086.75;;;16.63;31.80
7182;BME280;3632;42.724;23.298;2023-03-14T10:31:59;94989.78;;;16.31;32.72
7182;BME280;3632;42.724;23.298;2023-03-14T10:34:29;94790.28;;;15.41;32.47
7182;BME280;3632;42.724;23.298;2023-03-14T10:36:58;95085.84;;;17.74;33.58
7182;BME280;3632;42.724;23.298;2023-03-14T10:39:32;95078.94;;;17.75;32.22
7182;BME280;3632;42.724;23.298;2023-03-14T10:42:05;94816.28;;;16.03;31.90
7182;BME280;3632;42.724;23.298;2023-03-14T10:44:34;95064.94;;;18.00;32.80
7182;BME280;3632;42.724;23.298;2023-03-14T10:47:03;94882.34;;;17.05;31.72
7182;BME280;3632;42.724;23.298;2023-03-14T10:49:32;95056.47;;;18.37;32.31
7182;BME280;3632;42.724;23.298;2023-03-14T10:52:13;95057.69;;;18.49;32.88
7182;BME280;3632;42.724;23.298;2023-03-14T10:54:46;94919.81;;;17.07;33.32
7182;BME280;3632;42.724;23.298;2023-03-14T10:57:13;94978.34;;;17.52;34.68
7182;BME280;3632;42.724;23.298;2023-03-14T10:59:42;95042.50;;;17.78;31.56
7182;BME280;3632;42.724;23.298;2023-03-14T11:05:11;95063.91;;;17.31;31.93
7182;BME280;3632;42.724;23.298;2023-03-14T11:07:43;95010.25;;;18.05;33.55
7182;BME280;3632;42.724;23.298;2023-03-14T11:10:20;95006.63;;;18.59;33.43
7182;BME280;3632;42.724;23.298;2023-03-14T11:13:00;94990.84;;;18.92;31.86
7182;BME280;3632;42.724;23.298;2023-03-14T11:15:34;94978.34;;;18.81;31.49
7182;BME280;3632;42.724;23.298;2023-03-14T11:18:27;94962.75;;;19.18;32.22
7182;BME280;3632;42.724;23.298;2023-03-14T11:21:02;94923.53;;;19.29;32.00
7182;BME280;3632;42.724;23.298;2023-03-14T11:23:42;94977.69;;;19.88;31.39
7182;BME280;3632;42.724;23.298;2023-03-14T11:26:24;94899.50;;;19.65;30.80
7182;BME280;3632;42.724;23.298;2023-03-14T11:28:57;94563.53;;;18.88;31.03
7182;BME280;3632;42.724;23.298;2023-03-14T11:31:26;94948.97;;;21.63;29.22
7182;BME280;3632;42.724;23.298;2023-03-14T11:33:56;94954.75;;;21.65;28.94
7182;BME280;3632;42.724;23.298;2023-03-14T11:36:30;94881.09;;;21.39;28.74
7182;BME280;3632;42.724;23.298;2023-03-14T11:38:59;94927.16;;;21.37;27.98
7182;BME280;3632;42.724;23.298;2023-03-14T11:41:31;94828.47;;;20.16;28.28
7182;BME280;3632;42.724;23.298;2023-03-14T11:44:04;94507.00;;;17.65;29.79
7182;BME280;3632;42.724;23.298;2023-03-14T11:46:39;94843.19;;;21.25;29.03
7182;BME280;3632;42.724;23.298;2023-03-14T11:49:14;94895.75;;;21.80;28.58
7182;BME280;3632;42.724;23.298;2023-03-14T11:51:47;94896.13;;;21.90;28.58
7182;BME280;3632;42.724;23.298;2023-03-14T11:54:22;94535.38;;;19.34;27.77
7182;BME280;3632;42.724;23.298;2023-03-14T11:56:57;94683.19;;;20.19;27.38
7182;BME280;3632;42.724;23.298;2023-03-14T11:59:28;94661.66;;;20.05;28.29
7182;BME280;3632;42.724;23.298;2023-03-14T12:02:00;94890.34;;;21.68;27.81
7182;BME280;3632;42.724;23.298;2023-03-14T12:04:39;94843.47;;;21.96;28.59
7182;BME280;3632;42.724;23.298;2023-03-14T12:07:15;94866.44;;;22.12;27.88
7182;BME280;3632;42.724;23.298;2023-03-14T12:09:45;94738.31;;;21.67;28.16
7182;BME280;3632;42.724;23.298;2023-03-14T12:12:18;94792.97;;;21.92;27.86
7182;BME280;3632;42.724;23.298;2023-03-14T12:14:52;94488.25;;;19.73;26.97
7182;BME280;3632;42.724;23.298;2023-03-14T12:17:21;94801.34;;;21.81;26.83
7182;BME280;3632;42.724;23.298;2023-03-14T12:20:00;94831.44;;;22.41;28.28
7182;BME280;3632;42.724;23.298;2023-03-14T12:22:33;94833.09;;;22.93;29.69
7182;BME280;3632;42.724;23.298;2023-03-14T12:25:05;94814.25;;;23.04;27.28
7182;BME280;3632;42.724;23.298;2023-03-14T12:27:49;94783.38;;;22.12;28.62
7182;BME280;3632;42.724;23.298;2023-03-14T12:30:30;94790.09;;;23.04;28.82
7182;BME280;3632;42.724;23.298;2023-03-14T12:36:05;94821.34;;;23.22;28.70
7182;BME280;3632;42.724;23.298;2023-03-14T12:39:10;94795.31;;;22.20;28.15
7182;BME280;3632;42.724;23.298;2023-03-14T12:41:44;94479.13;;;19.83;29.96
7182;BME280;3632;42.724;23.298;2023-03-14T12:44:40;94791.19;;;21.60;28.93
7182;BME280;3632;42.724;23.298;2023-03-14T12:47:47;94780.19;;;21.38;29.12
7182;BME280;3632;42.724;23.298;2023-03-14T12:50:36;94779.38;;;21.83;31.07
7182;BME280;3632;42.724;23.298;2023-03-14T12:53:32;94759.00;;;22.13;29.68
7182;BME280;3632;42.724;23.298;2023-03-14T12:56:08;94757.03;;;22.73;28.70
7182;BME280;3632;42.724;23.298;2023-03-14T12:58:43;94511.69;;;20.65;26.72
7182;BME280;3632;42.724;23.298;2023-03-14T13:01:17;94750.47;;;22.64;28.71
7182;BME280;3632;42.724;23.298;2023-03-14T13:03:47;94364.28;;;20.70;27.17
7182;BME280;3632;42.724;23.298;2023-03-14T13:06:46;94745.31;;;23.33;27.92
7182;BME280;3632;42.724;23.298;2023-03-14T13:09:35;94741.09;;;23.63;28.40
7182;BME280;3632;42.724;23.298;2023-03-14T13:12:07;94737.25;;;24.09;27.02
7182;BME280;3632;42.724;23.298;2023-03-14T13:14:40;94573.13;;;23.06;26.73
7182;BME280;3632;42.724;23.298;2023-03-14T13:17:11;94727.78;;;23.96;28.17
7182;BME280;3632;42.724;23.298;2023-03-14T13:19:38;94718.22;;;24.08;27.44
7182;BME280;3632;42.724;23.298;2023-03-14T13:22:15;94693.38;;;23.70;26.46
7182;BME280;3632;42.724;23.298;2023-03-14T13:24:44;94353.66;;;20.84;27.44
7182;BME280;3632;42.724;23.298;2023-03-14T13:27:17;94685.00;;;22.49;27.06
7182;BME280;3632;42.724;23.298;2023-03-14T13:29:48;94601.06;;;22.23;27.78
7182;BME280;3632;42.724;23.298;2023-03-14T13:32:20;94617.81;;;22.59;25.63
7182;BME280;3632;42.724;23.298;2023-03-14T13:34:48;94685.56;;;22.95;26.22